• Join FlightAware (Why Join?)
  • Login
  • US Flag 
11:55AM EST


 

Airport Tracker/Info


-or-


 

Live Flight TrackerFlight Track Log ✈ FIN666 ✈ 14-Apr-2014 ✈ EKCH / CPH - EFHK / HEL

Flight Track Log - Related Links

Times and Time Zones

All times are in EDT time to prevent confusion due to time zone crossing. See the FIN666 flight status page for this flight to view local times or setup timezone preferences in your user account.

Time Position Orientation Groundspeed Altitude Reporting Facility
EDT Latitude Longitude Course Direction KTS MPH feet Rate Location/Type
07:30AM 55.8272 13.0881 49° Northeast  Level Estimated
07:31AM 55.8966 13.2332 49° Northeast  Level Estimated
07:32AM 55.9649 13.3769 50° Northeast  Level Estimated
07:33AM 56.0331 13.5211 50° Northeast  Level Estimated
07:34AM 56.1010 13.6658 50° Northeast  Level Estimated
07:35AM 56.1689 13.8110 50° Northeast  Level Estimated
07:36AM 56.2365 13.9567 50° Northeast  Level Estimated
07:37AM 56.3040 14.1029 50° Northeast  Level Estimated
07:38AM 56.3713 14.2497 50° Northeast  Level Estimated
07:39AM 56.4384 14.3970 50° Northeast  Level Estimated
07:40AM 56.5054 14.5448 51° Northeast  Level Estimated
07:41AM 56.5722 14.6931 51° Northeast  Level Estimated
07:42AM 56.6388 14.8419 51° Northeast  Level Estimated
07:43AM 56.7052 14.9913 51° Northeast  Level Estimated
07:44AM 56.7714 15.1412 51° Northeast  Level Estimated
07:45AM 56.8375 15.2916 51° Northeast  Level Estimated
07:46AM 56.9034 15.4425 51° Northeast  Level Estimated
07:47AM 56.9691 15.5940 51° Northeast  Level Estimated
07:48AM 57.0346 15.7460 52° Northeast  Level Estimated
07:49AM 57.0999 15.8986 52° Northeast  Level Estimated
07:50AM 57.1651 16.0517 52° Northeast  Level Estimated
07:51AM 57.2300 16.2053 52° Northeast  Level Estimated
07:52AM 57.2948 16.3595 52° Northeast  Level Estimated
07:53AM 57.3594 16.5142 52° Northeast  Level Estimated
07:54AM 57.4238 16.6695 52° Northeast  Level Estimated
07:55AM 57.4906 16.8317 52° Northeast  Level Estimated
07:56AM 57.5572 16.9945 53° Northeast  Level Estimated
07:57AM 57.6236 17.1579 53° Northeast  Level Estimated
07:58AM 57.6898 17.3220 53° Northeast  Level Estimated
07:59AM 57.7558 17.4866 53° Northeast  Level Estimated
08:00AM 57.8216 17.6518 53° Northeast  Level Estimated
08:01AM 57.8872 17.8176 53° Northeast  Level Estimated
08:02AM 57.9525 17.9840 53° Northeast  Level Estimated
08:03AM 58.0176 18.1510 54° Northeast  Level Estimated
08:04AM 58.0826 18.3187 54° Northeast  Level Estimated
08:05AM 58.1472 18.4869 54° Northeast  Level Estimated
08:06AM 58.2117 18.6558 54° Northeast  Level Estimated
08:07AM 58.2759 18.8252 54° Northeast  Level Estimated
08:08AM 58.3400 18.9953 54° Northeast  Level Estimated
08:09AM 58.4037 19.1660 54° Northeast  Level Estimated
08:10AM 58.4673 19.3373 55° Northeast  Level Estimated
08:11AM 58.5306 19.5093 55° Northeast  Level Estimated
08:12AM 58.5937 19.6818 55° Northeast  Level Estimated
08:13AM 58.6566 19.8550 55° Northeast  Level Estimated
08:14AM 58.7192 20.0288 55° Northeast  Level Estimated
08:15AM 58.7816 20.2033 55° Northeast  Level Estimated
08:16AM 58.8438 20.3783 55° Northeast  Level Estimated
08:17AM 58.9057 20.5540 56° Northeast  Level Estimated
08:18AM 58.9674 20.7303 56° Northeast  Level Estimated
08:19AM 59.0289 20.9073 56° Northeast  Level Estimated
08:20AM 59.0901 21.0848 56° Northeast  Level Estimated
08:21AM 59.1510 21.2631 56° Northeast  Level Estimated
08:22AM 59.2117 21.4419 56° Northeast  Level Estimated
08:23AM 59.2722 21.6214 57° Northeast  Level Estimated
08:24AM 59.3324 21.8015 57° Northeast  Level Estimated
08:25AM 59.3924 21.9823 57° Northeast  Level Estimated
08:26AM 59.4521 22.1637 57° Northeast  Level Estimated
08:27AM 59.5108 22.3432 57° Northeast  Level Estimated
08:28AM 59.5692 22.5234 57° Northeast  Level Estimated
08:29AM 59.6274 22.7043 57° Northeast  Level Estimated
08:30AM 59.6853 22.8857 58° Northeast  Level Estimated
08:31AM 59.7430 23.0678 58° Northeast  Level Estimated
08:32AM 59.8004 23.2505 58° Northeast  Level Estimated
08:33AM 59.8576 23.4338 58° Northeast  Level Estimated
08:34AM 59.9145 23.6178 58° Northeast  Level Estimated
08:35AM 59.9711 23.8024 58° Northeast  Level Estimated
08:36AM 60.0275 23.9876 59° Northeast  Level Estimated
08:37AM 60.0836 24.1735 59° Northeast  Level Estimated
08:38AM 60.1395 24.3599 59° Northeast  Level Estimated
08:39AM 60.1951 24.5471 59° Northeast  Level Estimated
08:40AM 60.2505 24.7348 59° Northeast  Level Estimated
08:41AM 60.3087 24.9340 59° Northeast  Level Estimated
08:42AM 60.3172 24.9633 60° Northeast  Level Estimated
08:43AM 60.3172 24.9633 North  Level Estimated
08:44AM 60.3172 24.9633 North  Level Estimated
08:45AM 60.3172 24.9633 North  Level Estimated
08:46AM 60.3172 24.9633 North  Level Estimated
08:47AM 60.3172 24.9633 North  Level Estimated
08:48AM 60.3172 24.9633 North  Level Estimated
08:49AM 60.3172 24.9633 North  Level Estimated
08:50AM 60.3172 24.9633 North  Level Estimated
08:51AM 60.3172 24.9633 North  Level Estimated
08:52AM 60.3172 24.9633 North  Level Estimated
08:53AM 60.3172 24.9633 North  Level Estimated